Pagrindinis puslapis
METAR-TAF:

METAR-TAF

Oro uostai :

Aleksandrija, Egiptas

platuma: 31-12N, ilguma: 029-57E, Aukštis: -2 m

Dabartinis oras

Ataskaita buvo paskelbta 10 valandos ir 54 minutes, ne 12:00 UTC
Vėjas 7 kt iš Šiaurės Rytų
Temperatūra 30°C
Drėgmė 55%
Slėgis 1015 hPa
Matomumas 10 km arba daugiau
nėra debesų žemiau 1500 m ir nėra kamuolinių lietaus debesų

METAR: HEAX 241200Z 05007KT CAVOK 30/20 Q1015 NOSIG

Laikas: 00:54 (22:54 UTC)

Prognozė

Ataskaita buvo paskelbta 5 valandos ir 54 minutes, ne 17:00 UTC
Prognozė galioja nuo 24 metu 18 UTC su 25 metu 24 UTC
Vėjas 8 kt iš Šiaurės Rytų
Matomumas 10 km arba daugiau
Mažai debesys ne aukštis 2000 ft
Tikimybė 30% :
Laikinai
nuo 25 metu 00 UTC su 25 metu 06 UTC
Vėjas 3 kt nuo kintamojo kryptimis
Matomumas: 4000 m
rūkana

TAF: HEAX 241700Z 2418/2524 05008KT 9999 FEW020 PROB30 TEMPO 2500/2506 VRB03KT 4000 BR NSC

Orai ataskaitas ir orų prognozės (METAR, TAF).

turimą stotys yra geltonos ir raudonos taškus žemėlapyje.

Perkelti pele per norėdami pamatyti stoties vardą.

Tada spustelėkite, norėdami matyti oro stebėjimo ir prognozės.

Norėdami pakeisti žemėlapį: spustelėkite ant žalios mygtukų su juodo kryžiaus žemyn,; žalią mygtuką su brūkšneliu, jei norite nutolinti; arba žalių rodyklių gretimoms žemėlapius.


METAR-TAF: